sensor_id;sensor_type;location;lat;lon;timestamp;P1;durP1;ratioP1;P2;durP2;ratioP2
64242;SDS011;50573;51.512;5.386;2022-10-29T00:06:47;33.35;;;14.48;;
64242;SDS011;50573;51.512;5.386;2022-10-29T00:16:55;35.42;;;16.50;;
64242;SDS011;50573;51.512;5.386;2022-10-29T00:26:59;33.00;;;15.40;;
64242;SDS011;50573;51.512;5.386;2022-10-29T00:37:03;33.20;;;16.67;;
64242;SDS011;50573;51.512;5.386;2022-10-29T00:47:12;31.48;;;16.15;;
64242;SDS011;50573;51.512;5.386;2022-10-29T00:57:21;32.57;;;16.37;;
64242;SDS011;50573;51.512;5.386;2022-10-29T01:07:29;33.55;;;17.50;;
64242;SDS011;50573;51.512;5.386;2022-10-29T01:17:36;34.35;;;16.38;;
64242;SDS011;50573;51.512;5.386;2022-10-29T01:27:55;44.17;;;21.60;;
64242;SDS011;50573;51.512;5.386;2022-10-29T01:38:16;31.00;;;16.00;;
64242;SDS011;50573;51.512;5.386;2022-10-29T01:48:26;36.83;;;19.10;;
64242;SDS011;50573;51.512;5.386;2022-10-29T01:58:35;47.30;;;23.65;;
64242;SDS011;50573;51.512;5.386;2022-10-29T02:08:41;47.47;;;20.38;;
64242;SDS011;50573;51.512;5.386;2022-10-29T02:18:51;27.95;;;16.17;;
64242;SDS011;50573;51.512;5.386;2022-10-29T02:28:54;34.97;;;18.10;;
64242;SDS011;50573;51.512;5.386;2022-10-29T02:38:59;63.22;;;25.80;;
64242;SDS011;50573;51.512;5.386;2022-10-29T02:49:02;54.87;;;27.37;;
64242;SDS011;50573;51.512;5.386;2022-10-29T02:59:07;31.60;;;18.88;;
64242;SDS011;50573;51.512;5.386;2022-10-29T03:09:12;43.85;;;20.85;;
64242;SDS011;50573;51.512;5.386;2022-10-29T03:19:17;36.20;;;20.27;;
64242;SDS011;50573;51.512;5.386;2022-10-29T03:29:20;39.33;;;19.77;;
64242;SDS011;50573;51.512;5.386;2022-10-29T03:39:24;45.20;;;21.05;;
64242;SDS011;50573;51.512;5.386;2022-10-29T03:49:27;36.60;;;20.60;;
64242;SDS011;50573;51.512;5.386;2022-10-29T03:59:31;48.05;;;21.77;;
64242;SDS011;50573;51.512;5.386;2022-10-29T04:09:34;40.10;;;20.80;;
64242;SDS011;50573;51.512;5.386;2022-10-29T04:19:38;30.77;;;16.40;;
64242;SDS011;50573;51.512;5.386;2022-10-29T04:29:41;45.73;;;21.37;;
64242;SDS011;50573;51.512;5.386;2022-10-29T04:39:46;43.35;;;22.80;;
64242;SDS011;50573;51.512;5.386;2022-10-29T04:49:49;41.50;;;22.17;;
64242;SDS011;50573;51.512;5.386;2022-10-29T04:59:53;52.60;;;23.98;;
64242;SDS011;50573;51.512;5.386;2022-10-29T05:09:56;40.88;;;23.67;;
64242;SDS011;50573;51.512;5.386;2022-10-29T05:20:01;54.30;;;24.30;;
64242;SDS011;50573;51.512;5.386;2022-10-29T05:30:04;49.90;;;25.07;;
64242;SDS011;50573;51.512;5.386;2022-10-29T05:40:10;45.85;;;25.35;;
64242;SDS011;50573;51.512;5.386;2022-10-29T05:50:13;55.03;;;26.05;;
64242;SDS011;50573;51.512;5.386;2022-10-29T06:00:18;46.53;;;22.80;;
64242;SDS011;50573;51.512;5.386;2022-10-29T06:10:21;54.88;;;23.30;;
64242;SDS011;50573;51.512;5.386;2022-10-29T06:20:26;48.92;;;23.70;;
64242;SDS011;50573;51.512;5.386;2022-10-29T06:30:29;46.60;;;23.92;;
64242;SDS011;50573;51.512;5.386;2022-10-29T06:40:35;40.43;;;22.73;;
64242;SDS011;50573;51.512;5.386;2022-10-29T06:50:38;48.07;;;23.53;;
64242;SDS011;50573;51.512;5.386;2022-10-29T07:00:42;41.90;;;21.00;;
64242;SDS011;50573;51.512;5.386;2022-10-29T07:10:48;41.92;;;23.30;;
64242;SDS011;50573;51.512;5.386;2022-10-29T07:20:53;39.30;;;20.70;;
64242;SDS011;50573;51.512;5.386;2022-10-29T07:30:57;33.93;;;19.63;;
64242;SDS011;50573;51.512;5.386;2022-10-29T07:51:05;38.25;;;19.90;;
64242;SDS011;50573;51.512;5.386;2022-10-29T08:01:10;38.53;;;19.98;;
64242;SDS011;50573;51.512;5.386;2022-10-29T08:11:13;37.50;;;18.92;;
64242;SDS011;50573;51.512;5.386;2022-10-29T08:21:17;36.38;;;17.60;;
64242;SDS011;50573;51.512;5.386;2022-10-29T08:41:29;33.30;;;15.32;;
64242;SDS011;50573;51.512;5.386;2022-10-29T08:51:38;29.53;;;14.17;;
64242;SDS011;50573;51.512;5.386;2022-10-29T09:01:45;27.15;;;11.65;;
64242;SDS011;50573;51.512;5.386;2022-10-29T09:11:56;27.52;;;11.07;;
64242;SDS011;50573;51.512;5.386;2022-10-29T09:22:11;25.23;;;10.43;;
64242;SDS011;50573;51.512;5.386;2022-10-29T09:32:20;23.13;;;9.88;;
64242;SDS011;50573;51.512;5.386;2022-10-29T09:42:30;20.20;;;7.43;;
64242;SDS011;50573;51.512;5.386;2022-10-29T09:52:38;24.25;;;7.63;;
64242;SDS011;50573;51.512;5.386;2022-10-29T10:02:46;20.48;;;7.47;;
64242;SDS011;50573;51.512;5.386;2022-10-29T10:12:56;17.80;;;7.20;;
64242;SDS011;50573;51.512;5.386;2022-10-29T10:23:22;16.63;;;6.43;;
64242;SDS011;50573;51.512;5.386;2022-10-29T10:33:27;17.00;;;6.17;;
64242;SDS011;50573;51.512;5.386;2022-10-29T10:43:31;17.55;;;5.82;;
64242;SDS011;50573;51.512;5.386;2022-10-29T10:53:37;15.55;;;5.70;;
64242;SDS011;50573;51.512;5.386;2022-10-29T11:03:44;14.25;;;6.18;;
64242;SDS011;50573;51.512;5.386;2022-10-29T11:13:48;19.73;;;5.65;;
64242;SDS011;50573;51.512;5.386;2022-10-29T11:23:55;19.60;;;5.95;;
64242;SDS011;50573;51.512;5.386;2022-10-29T11:34:04;14.75;;;5.30;;
64242;SDS011;50573;51.512;5.386;2022-10-29T11:44:16;15.50;;;5.53;;
64242;SDS011;50573;51.512;5.386;2022-10-29T11:54:27;14.77;;;4.93;;
64242;SDS011;50573;51.512;5.386;2022-10-29T12:04:45;19.58;;;5.45;;
64242;SDS011;50573;51.512;5.386;2022-10-29T12:14:56;17.30;;;4.88;;
64242;SDS011;50573;51.512;5.386;2022-10-29T12:25:23;16.02;;;5.70;;
64242;SDS011;50573;51.512;5.386;2022-10-29T12:35:36;18.45;;;4.45;;
64242;SDS011;50573;51.512;5.386;2022-10-29T12:45:45;25.25;;;4.20;;
64242;SDS011;50573;51.512;5.386;2022-10-29T12:56:16;21.80;;;5.57;;
64242;SDS011;50573;51.512;5.386;2022-10-29T13:06:43;13.68;;;5.07;;
64242;SDS011;50573;51.512;5.386;2022-10-29T13:16:48;21.70;;;6.10;;
64242;SDS011;50573;51.512;5.386;2022-10-29T13:26:57;16.70;;;4.80;;
64242;SDS011;50573;51.512;5.386;2022-10-29T13:47:56;18.80;;;5.93;;
64242;SDS011;50573;51.512;5.386;2022-10-29T13:58:05;16.48;;;5.20;;
64242;SDS011;50573;51.512;5.386;2022-10-29T14:08:15;19.15;;;5.25;;
64242;SDS011;50573;51.512;5.386;2022-10-29T14:18:21;22.95;;;5.88;;
64242;SDS011;50573;51.512;5.386;2022-10-29T14:28:27;15.52;;;4.70;;
64242;SDS011;50573;51.512;5.386;2022-10-29T14:38:33;20.33;;;5.90;;
64242;SDS011;50573;51.512;5.386;2022-10-29T14:48:47;17.17;;;5.25;;
64242;SDS011;50573;51.512;5.386;2022-10-29T14:58:57;25.15;;;6.63;;
64242;SDS011;50573;51.512;5.386;2022-10-29T15:09:02;18.60;;;5.45;;
64242;SDS011;50573;51.512;5.386;2022-10-29T15:19:09;24.65;;;5.88;;
64242;SDS011;50573;51.512;5.386;2022-10-29T15:29:20;28.02;;;5.30;;
64242;SDS011;50573;51.512;5.386;2022-10-29T15:39:56;21.42;;;5.43;;
64242;SDS011;50573;51.512;5.386;2022-10-29T15:50:05;18.25;;;5.70;;
64242;SDS011;50573;51.512;5.386;2022-10-29T16:00:12;21.23;;;6.25;;
64242;SDS011;50573;51.512;5.386;2022-10-29T16:10:17;28.00;;;7.10;;
64242;SDS011;50573;51.512;5.386;2022-10-29T16:20:22;22.17;;;7.10;;
64242;SDS011;50573;51.512;5.386;2022-10-29T16:30:26;19.65;;;7.85;;
64242;SDS011;50573;51.512;5.386;2022-10-29T16:40:30;26.15;;;8.10;;
64242;SDS011;50573;51.512;5.386;2022-10-29T16:50:34;29.40;;;8.37;;
64242;SDS011;50573;51.512;5.386;2022-10-29T17:00:38;28.02;;;9.45;;
64242;SDS011;50573;51.512;5.386;2022-10-29T17:10:42;24.40;;;7.82;;
64242;SDS011;50573;51.512;5.386;2022-10-29T17:20:53;26.30;;;9.25;;
64242;SDS011;50573;51.512;5.386;2022-10-29T17:30:58;22.67;;;7.75;;
64242;SDS011;50573;51.512;5.386;2022-10-29T17:41:01;21.17;;;8.77;;
64242;SDS011;50573;51.512;5.386;2022-10-29T17:51:05;14.38;;;7.78;;
64242;SDS011;50573;51.512;5.386;2022-10-29T18:01:09;23.38;;;8.52;;
64242;SDS011;50573;51.512;5.386;2022-10-29T18:11:15;29.42;;;9.30;;
64242;SDS011;50573;51.512;5.386;2022-10-29T18:21:20;23.60;;;10.25;;
64242;SDS011;50573;51.512;5.386;2022-10-29T18:31:27;31.48;;;9.48;;
64242;SDS011;50573;51.512;5.386;2022-10-29T18:41:31;25.33;;;7.80;;
64242;SDS011;50573;51.512;5.386;2022-10-29T18:51:36;25.97;;;8.00;;
64242;SDS011;50573;51.512;5.386;2022-10-29T19:01:39;16.20;;;6.38;;
64242;SDS011;50573;51.512;5.386;2022-10-29T19:11:43;22.48;;;7.28;;
64242;SDS011;50573;51.512;5.386;2022-10-29T19:21:46;27.02;;;7.32;;
64242;SDS011;50573;51.512;5.386;2022-10-29T19:31:51;17.45;;;6.93;;
64242;SDS011;50573;51.512;5.386;2022-10-29T19:41:54;22.33;;;8.63;;
64242;SDS011;50573;51.512;5.386;2022-10-29T19:51:58;23.02;;;7.30;;
64242;SDS011;50573;51.512;5.386;2022-10-29T20:02:01;26.13;;;7.63;;
64242;SDS011;50573;51.512;5.386;2022-10-29T20:12:06;21.88;;;7.03;;
64242;SDS011;50573;51.512;5.386;2022-10-29T20:22:09;18.42;;;7.78;;
64242;SDS011;50573;51.512;5.386;2022-10-29T20:32:13;24.45;;;8.55;;
64242;SDS011;50573;51.512;5.386;2022-10-29T20:52:21;16.45;;;7.72;;
64242;SDS011;50573;51.512;5.386;2022-10-29T21:12:28;22.23;;;8.05;;
64242;SDS011;50573;51.512;5.386;2022-10-29T21:22:31;21.75;;;8.65;;
64242;SDS011;50573;51.512;5.386;2022-10-29T21:32:36;22.38;;;7.38;;
64242;SDS011;50573;51.512;5.386;2022-10-29T21:52:43;27.05;;;8.77;;
64242;SDS011;50573;51.512;5.386;2022-10-29T22:02:46;19.55;;;8.10;;
64242;SDS011;50573;51.512;5.386;2022-10-29T22:12:51;20.80;;;8.63;;
64242;SDS011;50573;51.512;5.386;2022-10-29T22:22:54;28.73;;;9.05;;
64242;SDS011;50573;51.512;5.386;2022-10-29T22:32:59;26.37;;;8.23;;
64242;SDS011;50573;51.512;5.386;2022-10-29T22:43:03;20.02;;;7.90;;
64242;SDS011;50573;51.512;5.386;2022-10-29T22:53:07;18.90;;;8.43;;
64242;SDS011;50573;51.512;5.386;2022-10-29T23:03:10;16.15;;;8.13;;
64242;SDS011;50573;51.512;5.386;2022-10-29T23:13:15;21.52;;;8.50;;
64242;SDS011;50573;51.512;5.386;2022-10-29T23:23:18;22.38;;;8.57;;
64242;SDS011;50573;51.512;5.386;2022-10-29T23:33:22;32.60;;;9.45;;
64242;SDS011;50573;51.512;5.386;2022-10-29T23:43:25;28.30;;;8.82;;
64242;SDS011;50573;51.512;5.386;2022-10-29T23:53:30;27.20;;;9.82;;
